This is the latest recevied weather packets stored in our database for station/object N1MCJ. If no packets are shown the sender has not sent any weather packets the latest 10 day(s).
| Time | Temp. | Humidity | Pressure | Rain* | Wind** | Luminosity | Snow |
|---|---|---|---|---|---|---|---|
| 1777766515 | 11.67° C | 59% | 1001.5 hPa | 0 mm | - | 0 W/m² | - |
| 1777765611 | 12.22° C | 59% | 1001.6 hPa | 0 mm | - | 0 W/m² | - |
| 1777764707 | 12.78° C | 58% | 1001.4 hPa | 0 mm | - | 8 W/m² | - |
| 1777763803 | 13.33° C | 53% | 1001.2 hPa | 0 mm | - | 16 W/m² | - |
| 1777762903 | 13.89° C | 52% | 1001.2 hPa | 0 mm | - | 40 W/m² | - |
| 1777761998 | 15° C | 49% | 1001.2 hPa | 0 mm | - | 43 W/m² | - |
| 1777761096 | 14.44° C | 47% | 1001.3 hPa | 0 mm | - | 34 W/m² | - |
| 1777760192 | 14.44° C | 45% | 1001.2 hPa | 0 mm | - | 71 W/m² | - |
| 1777759287 | 13.89° C | 47% | 1000.9 hPa | 0 mm | - | 62 W/m² | - |
| 1777758385 | 14.44° C | 46% | 1001 hPa | 0 mm | - | 73 W/m² | - |
| 1777757482 | 15° C | 45% | 1001.1 hPa | 0 mm | - | 329 W/m² | - |
| 1777756580 | 13.89° C | 50% | 1001.2 hPa | 0 mm | - | 140 W/m² | - |
| 1777755677 | 13.89° C | 51% | 1000.9 hPa | 0 mm | - | 75 W/m² | - |
| 1777754774 | 14.44° C | 52% | 1001.1 hPa | 0 mm | - | 80 W/m² | - |
| 1777753872 | 14.44° C | 53% | 1001.4 hPa | 0 mm | - | 298 W/m² | - |
| 1777752967 | 14.44° C | 52% | 1001.4 hPa | 0 mm | - | 303 W/m² | - |
| 1777752063 | 14.44° C | 55% | 1001.6 hPa | 0 mm | - | 119 W/m² | - |
| 1777751160 | 14.44° C | 57% | 1001.9 hPa | 0 mm | - | 437 W/m² | - |
| 1777750256 | 13.33° C | 61% | 1002.2 hPa | 0 mm | - | 171 W/m² | - |
| 1777749352 | 13.33° C | 61% | 1002.3 hPa | 0 mm | - | 502 W/m² | - |
| 1777748450 | 11.11° C | 72% | 1002.5 hPa | 0 mm | - | 86 W/m² | - |
| 1777747549 | 10.56° C | 74% | 1002.8 hPa | 0 mm | - | 44 W/m² | - |
| 1777746644 | 10.56° C | 75% | 1002.6 hPa | 0 mm | - | 35 W/m² | - |
| 1777745739 | 10.56° C | 74% | 1002.8 hPa | 0 mm | - | 65 W/m² | - |
| 1777744837 | 10.56° C | 75% | 1002.7 hPa | 0 mm | - | 100 W/m² | - |
* Rain latest hour (hover to see other rain measurements)
** Current wind speed in m/s (hover to see current wind gust speed)